createdAt,value
2023-05-23T00:00:52.197Z,22.75
2023-05-23T00:03:23.125Z,103.45
2023-05-23T00:05:51.845Z,49.72
2023-05-23T00:08:20.967Z,93.38
2023-05-23T00:10:49.481Z,51.72
2023-05-23T00:13:19.864Z,42.22
2023-05-23T00:15:48.787Z,44.55
2023-05-23T00:18:17.960Z,69.93
2023-05-23T00:20:47.168Z,65.03
2023-05-23T00:23:19.487Z,123.57
2023-05-23T00:25:53.377Z,77.60
2023-05-23T00:28:24.355Z,55.13
2023-05-23T00:30:52.963Z,82.72
2023-05-23T00:33:22.586Z,71.18
2023-05-23T00:35:52.774Z,88.28
2023-05-23T00:38:22.104Z,43.95
2023-05-23T00:40:50.947Z,98.05
2023-05-23T00:43:20.956Z,50.60
2023-05-23T00:45:51.415Z,79.65
2023-05-23T00:48:20.568Z,57.80
2023-05-23T00:50:49.308Z,153.43
2023-05-23T00:53:18.371Z,77.00
2023-05-23T00:55:48.016Z,62.35
2023-05-23T00:58:18.073Z,112.18
2023-05-23T01:00:46.603Z,51.83
2023-05-23T01:03:18.627Z,95.22
2023-05-23T01:05:47.374Z,77.38
2023-05-23T01:08:17.073Z,72.43
2023-05-23T01:10:45.786Z,64.70
2023-05-23T01:13:23.473Z,66.35
2023-05-23T01:16:02.751Z,35.88
2023-05-23T01:18:38.479Z,100.97
2023-05-23T01:21:13.224Z,89.35
2023-05-23T01:24:06.075Z,121.25
2023-05-23T01:26:49.524Z,92.93
2023-05-23T01:29:25.808Z,51.92
2023-05-23T01:31:56.863Z,106.93
2023-05-23T01:34:25.622Z,53.75
2023-05-23T01:36:56.415Z,82.60
2023-05-23T01:39:25.419Z,84.20
2023-05-23T01:41:54.927Z,60.08
2023-05-23T01:44:25.019Z,53.63
2023-05-23T01:46:53.886Z,55.38
2023-05-23T01:49:24.286Z,88.35
2023-05-23T01:51:55.868Z,60.30
2023-05-23T01:54:24.649Z,94.97
2023-05-23T01:56:53.645Z,65.07
2023-05-23T01:59:22.693Z,109.00
2023-05-23T02:01:52.858Z,78.43
2023-05-23T02:04:23.051Z,72.85
2023-05-23T02:06:52.163Z,114.45
2023-05-23T02:09:21.440Z,61.92
2023-05-23T02:11:50.334Z,86.75
2023-05-23T02:14:19.907Z,117.88
2023-05-23T02:16:49.734Z,73.78
2023-05-23T02:19:19.744Z,69.40
2023-05-23T02:21:48.672Z,92.22
2023-05-23T02:24:17.670Z,105.68
2023-05-23T02:26:47.417Z,77.15
2023-05-23T02:29:17.749Z,112.63
2023-05-23T02:31:46.521Z,71.63
2023-05-23T02:34:15.081Z,92.70
2023-05-23T02:36:45.158Z,32.58
2023-05-23T02:39:13.667Z,109.55
2023-05-23T02:41:42.343Z,41.95
2023-05-23T02:44:10.810Z,192.02
2023-05-23T02:46:39.386Z,43.67
2023-05-23T02:49:07.953Z,88.53
2023-05-23T02:51:36.484Z,69.85
2023-05-23T02:54:06.574Z,214.30
2023-05-23T02:56:38.015Z,75.65
2023-05-23T02:59:06.750Z,189.52
2023-05-23T03:01:35.535Z,119.97
2023-05-23T03:04:04.482Z,42.88
2023-05-23T03:06:34.252Z,67.47
2023-05-23T03:09:02.965Z,119.95
2023-05-23T03:11:33.082Z,74.55
2023-05-23T03:14:01.578Z,40.58
2023-05-23T03:16:30.213Z,55.58
2023-05-23T03:18:58.919Z,116.00
2023-05-23T03:21:27.752Z,72.80
2023-05-23T03:23:56.452Z,101.18
2023-05-23T03:26:25.386Z,51.08
2023-05-23T03:28:55.368Z,53.80
2023-05-23T03:31:24.241Z,29.02
2023-05-23T03:33:53.951Z,34.33
2023-05-23T03:36:26.150Z,138.18
2023-05-23T03:41:53.469Z,120.47
2023-05-23T03:44:24.255Z,87.88
2023-05-23T03:46:53.229Z,37.70
2023-05-23T03:49:22.515Z,69.55
2023-05-23T03:51:51.557Z,52.80
2023-05-23T03:54:20.541Z,60.33
2023-05-23T03:56:49.184Z,52.33
2023-05-23T03:59:17.767Z,99.68
2023-05-23T04:01:50.226Z,56.03
2023-05-23T04:04:21.285Z,46.63
2023-05-23T04:09:19.570Z,53.10
2023-05-23T04:11:50.550Z,67.72
2023-05-23T04:14:22.900Z,46.38
2023-05-23T04:16:54.860Z,109.20
2023-05-23T04:19:25.529Z,47.42
2023-05-23T04:21:55.216Z,53.72
2023-05-23T04:24:24.552Z,60.17
2023-05-23T04:26:56.536Z,34.97
2023-05-23T04:29:26.471Z,48.42
2023-05-23T04:31:57.782Z,51.50
2023-05-23T04:34:28.093Z,54.00
2023-05-23T04:36:57.584Z,55.13
2023-05-23T04:39:27.598Z,74.93
2023-05-23T04:42:18.957Z,59.38
2023-05-23T04:45:16.999Z,88.80
2023-05-23T04:47:58.143Z,32.50
2023-05-23T04:50:42.985Z,68.85
2023-05-23T04:53:11.585Z,79.70
2023-05-23T04:55:41.447Z,60.53
2023-05-23T04:58:15.052Z,90.40
2023-05-23T05:00:44.415Z,55.85
2023-05-23T05:03:16.354Z,69.55
2023-05-23T05:05:47.066Z,49.63
2023-05-23T05:08:20.077Z,36.33
2023-05-23T05:10:49.451Z,44.03
2023-05-23T05:13:20.646Z,75.47
2023-05-23T05:15:54.841Z,45.33
2023-05-23T05:18:30.756Z,14.02
2023-05-23T05:21:01.472Z,19.80
2023-05-23T05:23:33.440Z,20.13
2023-05-23T05:26:03.563Z,37.17
2023-05-23T05:28:32.419Z,23.65
2023-05-23T05:31:05.558Z,28.92
2023-05-23T05:33:38.630Z,23.52
2023-05-23T05:36:13.796Z,34.15
2023-05-23T05:38:43.268Z,20.83
2023-05-23T05:41:13.095Z,53.80
2023-05-23T05:43:47.520Z,30.35
2023-05-23T05:46:16.675Z,7.80
2023-05-23T05:48:47.702Z,6.68
2023-05-23T05:51:19.312Z,7.18
2023-05-23T05:53:49.849Z,6.18
2023-05-23T05:56:19.258Z,8.37
2023-05-23T05:58:48.054Z,9.68
2023-05-23T06:01:18.405Z,7.20
2023-05-23T06:03:49.008Z,5.72
2023-05-23T06:06:18.378Z,5.97
2023-05-23T06:08:47.083Z,10.05
2023-05-23T06:11:18.643Z,6.43
2023-05-23T06:13:48.403Z,6.30
2023-05-23T06:16:17.758Z,5.00
2023-05-23T06:18:49.094Z,7.63
2023-05-23T06:21:17.888Z,5.82
2023-05-23T06:23:51.227Z,5.20
2023-05-23T06:26:20.257Z,6.70
2023-05-23T06:28:49.008Z,5.82
2023-05-23T06:31:18.020Z,5.65
2023-05-23T06:33:48.399Z,6.72
2023-05-23T06:36:17.178Z,5.85
2023-05-23T06:38:45.812Z,7.00
2023-05-23T06:41:14.419Z,5.40
2023-05-23T06:43:43.256Z,6.28
2023-05-23T06:46:17.255Z,7.13
2023-05-23T06:48:46.431Z,5.68
2023-05-23T06:51:17.693Z,4.80
2023-05-23T06:53:47.097Z,4.10
2023-05-23T06:56:17.698Z,8.30
2023-05-23T06:58:58.863Z,5.18
2023-05-23T07:01:29.021Z,6.55
2023-05-23T07:03:58.000Z,6.68
2023-05-23T07:06:28.907Z,4.18
2023-05-23T07:08:59.701Z,4.25
2023-05-23T07:11:29.337Z,4.90
2023-05-23T07:14:01.527Z,3.72
2023-05-23T07:16:50.914Z,8.95
2023-05-23T07:19:20.100Z,5.40
2023-05-23T07:21:53.619Z,4.68
2023-05-23T07:24:24.512Z,2.58
2023-05-23T07:26:57.118Z,4.80
2023-05-23T07:29:28.434Z,6.68
2023-05-23T07:31:59.175Z,3.85
2023-05-23T07:34:30.895Z,6.05
2023-05-23T07:37:04.274Z,4.28
2023-05-23T07:39:40.658Z,4.25
2023-05-23T07:42:09.913Z,5.15
2023-05-23T07:44:39.913Z,3.35
2023-05-23T07:47:08.962Z,3.58
2023-05-23T07:49:38.033Z,9.02
2023-05-23T07:52:08.739Z,4.72
2023-05-23T07:54:38.289Z,6.57
2023-05-23T07:57:09.229Z,4.03
2023-05-23T07:59:38.429Z,4.15
2023-05-23T08:02:08.421Z,3.30
2023-05-23T08:04:37.499Z,6.32
2023-05-23T08:07:08.707Z,3.85
2023-05-23T08:09:57.503Z,3.47
2023-05-23T08:12:26.395Z,4.90
2023-05-23T08:15:04.237Z,10.68
2023-05-23T08:20:14.932Z,8.00
2023-05-23T08:22:47.673Z,11.35
2023-05-23T08:25:17.701Z,17.85
2023-05-23T08:27:47.183Z,16.25
2023-05-23T08:30:41.302Z,10.48
2023-05-23T08:33:10.493Z,5.32
2023-05-23T08:35:41.800Z,7.23
2023-05-23T08:43:30.552Z,8.52
2023-05-23T08:46:00.147Z,6.23
2023-05-23T08:48:32.644Z,17.27
2023-05-23T08:51:04.514Z,4.82
2023-05-23T08:56:08.567Z,4.70
2023-05-23T08:58:45.700Z,5.18
2023-05-23T09:01:18.253Z,3.30
2023-05-23T09:03:46.978Z,4.60
2023-05-23T09:06:40.132Z,3.45
2023-05-23T09:09:11.965Z,5.20
2023-05-23T09:11:41.701Z,4.03
2023-05-23T09:14:14.864Z,5.05
2023-05-23T09:16:48.962Z,3.05
2023-05-23T09:19:20.675Z,5.40
2023-05-23T09:21:58.880Z,6.82
2023-05-23T09:24:37.332Z,5.95
2023-05-23T09:27:10.081Z,5.28
2023-05-23T09:29:41.062Z,5.77
2023-05-23T09:32:14.090Z,5.68
2023-05-23T09:34:43.772Z,5.22
2023-05-23T09:37:19.777Z,6.05
2023-05-23T09:39:50.642Z,8.50
2023-05-23T09:42:23.745Z,6.22
2023-05-23T09:44:52.500Z,17.23
2023-05-23T09:47:21.318Z,12.23
2023-05-23T09:49:51.680Z,7.53
2023-05-23T09:52:22.681Z,5.65
2023-05-23T09:54:53.306Z,8.20
2023-05-23T09:57:24.862Z,4.72
2023-05-23T09:59:57.892Z,7.53
2023-05-23T10:02:55.596Z,6.75
2023-05-23T10:05:36.022Z,7.93
2023-05-23T10:08:14.274Z,9.70
2023-05-23T10:11:30.648Z,8.88
2023-05-23T10:14:03.539Z,9.43
2023-05-23T10:16:44.886Z,8.55
2023-05-23T10:19:29.227Z,7.28
2023-05-23T10:22:01.330Z,6.80
2023-05-23T10:24:34.601Z,8.25
2023-05-23T10:27:05.248Z,6.25
2023-05-23T10:29:43.643Z,7.53
2023-05-23T10:32:16.897Z,6.90
2023-05-23T10:34:58.740Z,9.68
2023-05-23T10:37:41.050Z,9.77
2023-05-23T10:40:32.047Z,7.65
2023-05-23T10:43:16.711Z,5.85
2023-05-23T10:45:50.946Z,4.47
2023-05-23T10:48:35.828Z,3.92
2023-05-23T10:51:07.440Z,5.70
2023-05-23T10:53:42.932Z,2.95
2023-05-23T10:56:14.301Z,6.10
2023-05-23T11:01:26.446Z,4.00
2023-05-23T11:03:57.181Z,5.43
2023-05-23T11:06:39.783Z,7.18
2023-05-23T11:09:12.907Z,5.70
2023-05-23T11:12:12.869Z,4.05
2023-05-23T11:14:58.813Z,5.75
2023-05-23T11:17:39.485Z,7.70
2023-05-23T11:20:15.620Z,3.97
2023-05-23T11:23:00.428Z,5.60
2023-05-23T11:25:48.312Z,3.05
2023-05-23T11:28:34.950Z,3.95
2023-05-23T11:31:14.404Z,5.70
2023-05-23T11:33:45.854Z,5.68
2023-05-23T11:36:15.770Z,4.25
2023-05-23T11:38:49.618Z,8.32
2023-05-23T11:41:26.829Z,4.80
2023-05-23T11:44:00.115Z,3.45
2023-05-23T11:46:37.064Z,6.45
2023-05-23T11:49:16.779Z,5.78
2023-05-23T11:51:55.791Z,5.68
2023-05-23T11:54:34.761Z,3.80
2023-05-23T11:57:10.841Z,4.60
2023-05-23T11:59:49.437Z,5.38
2023-05-23T12:02:21.264Z,2.85
2023-05-23T12:04:53.188Z,3.90
2023-05-23T12:07:25.734Z,5.63
2023-05-23T12:10:01.606Z,7.28
2023-05-23T12:12:31.951Z,5.45
2023-05-23T12:15:06.043Z,4.28
2023-05-23T12:17:35.630Z,5.82
2023-05-23T12:20:18.014Z,4.93
2023-05-23T12:22:50.584Z,8.95
2023-05-23T12:25:23.639Z,3.53
2023-05-23T12:27:53.724Z,4.45
2023-05-23T12:30:28.846Z,4.75
2023-05-23T12:33:10.713Z,7.40
2023-05-23T12:35:45.780Z,4.63
2023-05-23T12:38:18.711Z,3.92
2023-05-23T12:40:48.679Z,5.78
2023-05-23T12:43:24.749Z,5.57
2023-05-23T12:45:54.278Z,6.88
2023-05-23T12:48:24.288Z,3.88
2023-05-23T12:50:56.237Z,4.50
2023-05-23T12:53:26.635Z,5.55
2023-05-23T12:55:57.301Z,6.82
2023-05-23T12:58:30.962Z,7.10
2023-05-23T13:01:01.533Z,7.25
2023-05-23T13:03:33.517Z,7.40
2023-05-23T13:06:12.008Z,4.60
2023-05-23T13:08:48.125Z,5.63
2023-05-23T13:11:26.188Z,5.32
2023-05-23T13:13:56.239Z,5.82
2023-05-23T13:16:30.784Z,6.53
2023-05-23T13:19:00.637Z,5.05
2023-05-23T13:21:52.211Z,6.72
2023-05-23T13:24:26.532Z,5.88
2023-05-23T13:27:13.562Z,7.47
2023-05-23T13:30:01.057Z,7.68
2023-05-23T13:32:33.728Z,4.88
2023-05-23T13:35:04.352Z,6.47
2023-05-23T13:37:52.083Z,8.93
2023-05-23T13:40:33.816Z,4.55
2023-05-23T13:43:19.675Z,3.80
2023-05-23T13:45:56.716Z,4.93
2023-05-23T13:48:38.935Z,8.15
2023-05-23T13:51:28.023Z,4.30
2023-05-23T13:54:24.156Z,5.20
2023-05-23T13:57:14.153Z,9.65
2023-05-23T13:59:44.018Z,3.95
2023-05-23T14:02:17.873Z,4.35
2023-05-23T14:04:47.270Z,4.85
2023-05-23T14:07:22.568Z,4.38
2023-05-23T14:13:18.586Z,4.22
2023-05-23T14:15:48.146Z,5.22
2023-05-23T14:18:20.836Z,4.65
2023-05-23T14:20:55.747Z,5.60
2023-05-23T14:23:28.998Z,4.97
2023-05-23T14:26:09.394Z,3.83
2023-05-23T14:28:54.056Z,4.53
2023-05-23T14:31:25.020Z,5.18
2023-05-23T14:34:04.072Z,5.07
2023-05-23T14:36:49.009Z,4.10
2023-05-23T14:39:38.090Z,8.93
2023-05-23T14:42:39.066Z,4.60
2023-05-23T14:45:23.673Z,6.32
2023-05-23T14:48:05.080Z,4.38
2023-05-23T14:50:48.963Z,4.18
2023-05-23T14:53:48.668Z,16.10
2023-05-23T14:56:18.682Z,17.73
2023-05-23T14:59:01.663Z,4.68
2023-05-23T15:01:58.016Z,3.70
2023-05-23T15:04:47.458Z,7.38
2023-05-23T15:07:49.197Z,3.80
2023-05-23T15:10:25.731Z,3.85
2023-05-23T15:13:01.009Z,7.40
2023-05-23T15:15:47.034Z,6.45
2023-05-23T15:18:39.516Z,3.03
2023-05-23T15:21:33.525Z,5.50
2023-05-23T15:24:16.737Z,5.35
2023-05-23T15:27:15.737Z,3.70
2023-05-23T15:29:58.154Z,3.75
2023-05-23T15:32:39.047Z,5.32
2023-05-23T15:35:30.217Z,5.22
2023-05-23T15:38:08.063Z,3.70
2023-05-23T15:40:54.918Z,4.15
2023-05-23T15:43:31.984Z,3.15
2023-05-23T15:46:04.680Z,3.88
2023-05-23T15:48:41.521Z,5.15
2023-05-23T15:51:16.984Z,3.13
2023-05-23T15:56:33.676Z,9.02
2023-05-23T15:59:06.198Z,7.53
2023-05-23T16:01:41.172Z,3.78
2023-05-23T16:04:23.031Z,4.75
2023-05-23T16:07:20.189Z,3.75
2023-05-23T16:10:02.241Z,5.05
2023-05-23T16:12:32.999Z,5.20
2023-05-23T16:15:05.573Z,3.28
2023-05-23T16:17:57.982Z,5.70
2023-05-23T16:20:38.651Z,5.50
2023-05-23T16:23:30.126Z,5.82
2023-05-23T16:29:18.290Z,8.52
2023-05-23T16:32:09.849Z,5.38
2023-05-23T16:35:06.137Z,5.45
2023-05-23T16:37:49.769Z,4.60
2023-05-23T16:40:25.996Z,7.35
2023-05-23T16:43:05.640Z,6.75
2023-05-23T16:45:50.891Z,6.55
2023-05-23T16:48:41.917Z,4.47
2023-05-23T16:51:22.945Z,4.47
2023-05-23T16:53:56.913Z,4.18
2023-05-23T16:56:43.109Z,4.00
2023-05-23T16:59:55.812Z,3.25
2023-05-23T17:02:41.421Z,4.63
2023-05-23T17:05:14.648Z,8.50
2023-05-23T17:11:02.052Z,5.30
2023-05-23T17:13:31.840Z,6.20
2023-05-23T17:16:04.002Z,5.47
2023-05-23T17:18:37.024Z,6.38
2023-05-23T17:21:06.925Z,4.57
2023-05-23T17:23:40.057Z,6.32
2023-05-23T17:26:13.601Z,4.47
2023-05-23T17:28:43.618Z,3.78
2023-05-23T17:31:18.128Z,4.07
2023-05-23T17:33:54.867Z,6.18
2023-05-23T17:36:29.840Z,8.60
2023-05-23T17:39:04.828Z,7.47
2023-05-23T17:41:49.850Z,5.53
2023-05-23T17:44:28.338Z,14.10
2023-05-23T17:46:58.076Z,68.63
2023-05-23T17:49:33.313Z,35.35
2023-05-23T17:52:12.245Z,17.13
2023-05-23T17:57:16.661Z,37.58
2023-05-23T17:59:46.563Z,28.20
2023-05-23T18:02:16.751Z,20.90
2023-05-23T18:04:47.040Z,16.65
2023-05-23T18:07:21.789Z,20.30
2023-05-23T18:10:00.100Z,20.33
2023-05-23T18:12:33.708Z,19.98
2023-05-23T18:15:02.856Z,13.05
2023-05-23T18:17:31.393Z,30.15
2023-05-23T18:20:15.033Z,27.33
2023-05-23T18:22:55.419Z,9.68
2023-05-23T18:25:27.918Z,18.98
2023-05-23T18:30:29.697Z,16.63
2023-05-23T18:32:59.594Z,20.77
2023-05-23T18:35:34.672Z,32.17
2023-05-23T18:38:04.090Z,23.15
2023-05-23T18:40:33.669Z,23.98
2023-05-23T18:43:06.579Z,16.63
2023-05-23T18:45:51.009Z,18.05
2023-05-23T18:48:24.802Z,28.27
2023-05-23T18:51:17.358Z,19.17
2023-05-23T18:53:48.959Z,22.88
2023-05-23T18:56:19.041Z,37.13
2023-05-23T18:58:57.363Z,22.90
2023-05-23T19:01:26.825Z,21.05
2023-05-23T19:03:57.671Z,40.60
2023-05-23T19:06:29.454Z,29.67
2023-05-23T19:09:00.395Z,21.13
2023-05-23T19:11:29.938Z,16.08
2023-05-23T19:14:03.976Z,14.75
2023-05-23T19:16:36.846Z,17.15
2023-05-23T19:19:06.276Z,12.15
2023-05-23T19:21:36.155Z,25.15
2023-05-23T19:24:10.628Z,10.32
2023-05-23T19:26:43.038Z,9.45
2023-05-23T19:29:22.863Z,11.68
2023-05-23T19:31:58.489Z,8.20
2023-05-23T19:34:29.097Z,15.43
2023-05-23T19:36:58.656Z,19.00
2023-05-23T19:39:29.196Z,18.88
2023-05-23T19:42:02.352Z,13.75
2023-05-23T19:44:33.698Z,16.42
2023-05-23T19:47:02.925Z,15.30
2023-05-23T19:49:33.053Z,21.67
2023-05-23T19:52:04.001Z,17.30
2023-05-23T19:54:34.190Z,22.23
2023-05-23T19:57:05.706Z,21.70
2023-05-23T19:59:40.980Z,17.15
2023-05-23T20:02:15.588Z,19.20
2023-05-23T20:04:47.780Z,13.80
2023-05-23T20:07:17.007Z,10.05
2023-05-23T20:09:47.390Z,20.23
2023-05-23T20:12:17.995Z,13.27
2023-05-23T20:14:49.065Z,17.98
2023-05-23T20:17:21.207Z,20.35
2023-05-23T20:20:03.860Z,11.98
2023-05-23T20:22:35.595Z,18.83
2023-05-23T20:25:08.748Z,21.35
2023-05-23T20:27:37.907Z,15.15
2023-05-23T20:30:16.414Z,17.50
2023-05-23T20:32:51.780Z,13.05
2023-05-23T20:35:25.126Z,23.15
2023-05-23T20:37:54.009Z,11.65
2023-05-23T20:40:26.909Z,20.80
2023-05-23T20:42:56.165Z,14.18
2023-05-23T20:45:33.365Z,18.98
2023-05-23T20:48:06.383Z,15.60
2023-05-23T20:50:37.853Z,29.35
2023-05-23T20:53:08.966Z,18.98
2023-05-23T20:55:38.302Z,26.93
2023-05-23T20:58:07.446Z,17.70
2023-05-23T21:00:39.098Z,24.40
2023-05-23T21:03:08.861Z,24.40
2023-05-23T21:05:45.025Z,20.60
2023-05-23T21:08:18.222Z,37.22
2023-05-23T21:10:55.194Z,18.50
2023-05-23T21:13:28.573Z,23.45
2023-05-23T21:16:02.122Z,19.92
2023-05-23T21:23:38.299Z,41.88
2023-05-23T21:26:07.801Z,12.35
2023-05-23T21:28:36.713Z,10.90
2023-05-23T21:31:08.253Z,11.85
2023-05-23T21:33:37.372Z,11.57
2023-05-23T21:36:06.746Z,10.70
2023-05-23T21:38:40.688Z,13.73
2023-05-23T21:41:09.508Z,14.45
2023-05-23T21:43:38.428Z,17.13
2023-05-23T21:46:08.866Z,15.07
2023-05-23T21:48:38.383Z,23.23
2023-05-23T21:51:07.618Z,11.52
2023-05-23T21:53:36.517Z,17.63
2023-05-23T21:56:05.522Z,11.77
2023-05-23T21:58:34.729Z,23.48
2023-05-23T22:01:05.513Z,12.27
2023-05-23T22:03:36.305Z,20.43
2023-05-23T22:06:05.506Z,15.15
2023-05-23T22:08:34.702Z,13.98
2023-05-23T22:11:04.706Z,12.48
2023-05-23T22:13:33.733Z,15.50
2023-05-23T22:16:02.955Z,12.63
2023-05-23T22:18:50.947Z,16.70
2023-05-23T22:21:20.636Z,15.07
2023-05-23T22:23:49.889Z,10.65
2023-05-23T22:26:18.768Z,13.20
2023-05-23T22:28:47.935Z,10.65
2023-05-23T22:31:17.179Z,13.32
2023-05-23T22:33:48.038Z,8.07
2023-05-23T22:36:17.954Z,10.57
2023-05-23T22:38:46.934Z,13.77
2023-05-23T22:41:16.272Z,11.52
2023-05-23T22:43:45.096Z,9.80
2023-05-23T22:46:14.045Z,10.20
2023-05-23T22:48:43.121Z,15.13
2023-05-23T22:51:14.845Z,12.85
2023-05-23T22:53:44.202Z,13.75
2023-05-23T22:56:18.808Z,10.10
2023-05-23T22:58:47.618Z,12.40
2023-05-23T23:01:16.305Z,7.93
2023-05-23T23:03:45.338Z,9.93
2023-05-23T23:06:15.755Z,10.80
2023-05-23T23:08:44.542Z,12.38
2023-05-23T23:11:16.985Z,10.63
2023-05-23T23:16:15.262Z,20.52
2023-05-23T23:18:43.886Z,9.45
2023-05-23T23:21:12.649Z,9.98
2023-05-23T23:23:43.831Z,11.32
2023-05-23T23:26:12.945Z,10.02
2023-05-23T23:28:42.241Z,10.38
2023-05-23T23:31:10.910Z,20.92
2023-05-23T23:33:39.832Z,18.38
2023-05-23T23:36:09.353Z,16.17
2023-05-23T23:49:06.965Z,17.85
2023-05-23T23:51:36.779Z,27.38
2023-05-23T23:54:05.542Z,26.00
2023-05-23T23:56:36.991Z,26.67
2023-05-23T23:59:06.368Z,32.65
